createdAt,value
2019-05-23T00:00:11.168Z,95.40
2019-05-23T00:02:58.772Z,95.20
2019-05-23T00:05:52.823Z,95.50
2019-05-23T00:08:40.187Z,95.50
2019-05-23T00:11:32.447Z,95.60
2019-05-23T00:14:30.442Z,95.60
2019-05-23T00:16:59.371Z,95.50
2019-05-23T00:19:27.705Z,95.60
2019-05-23T00:21:55.379Z,95.50
2019-05-23T00:24:24.557Z,95.40
2019-05-23T00:26:52.479Z,95.40
2019-05-23T00:29:21.672Z,95.30
2019-05-23T00:31:56.735Z,95.40
2019-05-23T00:34:26.104Z,95.80
2019-05-23T00:36:54.936Z,96.10
2019-05-23T00:39:23.715Z,96.20
2019-05-23T00:41:54.406Z,96.40
2019-05-23T00:44:22.412Z,96.60
2019-05-23T00:46:52.050Z,96.60
2019-05-23T00:49:20.768Z,96.50
2019-05-23T00:51:48.355Z,96.60
2019-05-23T00:54:16.350Z,96.50
2019-05-23T00:56:45.001Z,96.40
2019-05-23T00:59:25.957Z,96.20
2019-05-23T01:01:43.017Z,96.20
2019-05-23T01:04:12.617Z,96.20
2019-05-23T01:06:40.971Z,96.40
2019-05-23T01:09:09.997Z,96.50
2019-05-23T01:11:37.798Z,96.60
2019-05-23T01:14:05.550Z,96.90
2019-05-23T01:16:33.211Z,97.00
2019-05-23T01:19:01.163Z,97.40
2019-05-23T01:21:55.037Z,97.40
2019-05-23T01:24:27.262Z,97.20
2019-05-23T01:26:55.841Z,96.90
2019-05-23T01:29:26.309Z,97.00
2019-05-23T01:31:59.725Z,97.10
2019-05-23T01:34:30.301Z,97.10
2019-05-23T01:36:58.241Z,97.30
2019-05-23T01:39:25.875Z,97.40
2019-05-23T01:41:54.102Z,97.40
2019-05-23T01:44:23.191Z,97.30
2019-05-23T01:46:51.448Z,97.40
2019-05-23T01:49:19.336Z,97.40
2019-05-23T01:51:48.758Z,97.30
2019-05-23T01:54:17.211Z,97.40
2019-05-23T01:56:45.046Z,97.40
2019-05-23T01:59:13.435Z,97.40
2019-05-23T02:01:41.231Z,97.40
2019-05-23T02:04:09.717Z,97.40
2019-05-23T02:06:37.891Z,97.40
2019-05-23T02:09:09.038Z,97.40
2019-05-23T02:11:37.155Z,97.40
2019-05-23T02:14:07.482Z,97.40
2019-05-23T02:16:35.985Z,97.40
2019-05-23T02:19:05.260Z,97.40
2019-05-23T02:21:32.788Z,97.40
2019-05-23T02:24:01.738Z,97.40
2019-05-23T02:26:30.937Z,97.30
2019-05-23T02:29:00.184Z,97.30
2019-05-23T02:31:29.342Z,97.40
2019-05-23T02:33:57.598Z,97.40
2019-05-23T02:36:25.373Z,97.40
2019-05-23T02:39:12.547Z,97.40
2019-05-23T02:41:58.682Z,97.40
2019-05-23T02:44:28.880Z,97.40
2019-05-23T02:47:22.269Z,97.40
2019-05-23T02:49:51.381Z,97.30
2019-05-23T02:52:47.463Z,97.30
2019-05-23T02:55:28.995Z,97.30
2019-05-23T02:58:04.640Z,97.30
2019-05-23T03:01:00.879Z,97.10
2019-05-23T03:03:32.115Z,97.00
2019-05-23T03:06:01.504Z,96.80
2019-05-23T03:08:30.765Z,96.90
2019-05-23T03:11:39.161Z,96.80
2019-05-23T03:14:11.080Z,96.70
2019-05-23T03:16:43.845Z,96.30
2019-05-23T03:19:18.077Z,96.00
2019-05-23T03:21:47.622Z,96.10
2019-05-23T03:24:15.709Z,95.90
2019-05-23T03:27:15.202Z,96.00
2019-05-23T03:29:43.615Z,96.30
2019-05-23T03:32:49.330Z,96.50
2019-05-23T03:35:34.499Z,97.00
2019-05-23T03:38:03.460Z,97.40
2019-05-23T03:40:31.093Z,97.40
2019-05-23T03:42:59.410Z,97.40
2019-05-23T03:45:30.261Z,97.40
2019-05-23T03:47:57.900Z,97.40
2019-05-23T03:50:29.195Z,97.40
2019-05-23T03:52:57.294Z,97.40
2019-05-23T03:55:28.005Z,97.40
2019-05-23T03:57:57.186Z,97.40
2019-05-23T04:00:26.802Z,97.40
2019-05-23T04:02:54.656Z,97.40
2019-05-23T04:05:22.453Z,97.20
2019-05-23T04:07:50.950Z,97.30
2019-05-23T04:10:18.891Z,97.20
2019-05-23T04:12:46.863Z,97.00
2019-05-23T04:15:15.174Z,97.20
2019-05-23T04:17:43.725Z,97.10
2019-05-23T04:20:12.586Z,96.60
2019-05-23T04:22:40.273Z,96.30
2019-05-23T04:25:08.660Z,96.40
2019-05-23T04:27:36.980Z,96.40
2019-05-23T04:30:06.229Z,96.60
2019-05-23T04:32:34.192Z,96.60
2019-05-23T04:35:01.955Z,96.40
2019-05-23T04:37:30.137Z,96.10
2019-05-23T04:39:57.838Z,96.10
2019-05-23T04:42:26.031Z,96.20
2019-05-23T04:44:53.972Z,96.40
2019-05-23T04:47:21.717Z,96.40
2019-05-23T04:49:49.332Z,95.80
2019-05-23T04:52:17.376Z,95.40
2019-05-23T04:55:26.472Z,95.20
2019-05-23T04:57:54.724Z,95.00
2019-05-23T05:00:23.317Z,94.70
2019-05-23T05:02:52.104Z,94.70
2019-05-23T05:05:22.460Z,94.40
2019-05-23T05:07:50.099Z,94.20
2019-05-23T05:10:21.142Z,93.90
2019-05-23T05:12:49.003Z,93.30
2019-05-23T05:15:16.754Z,93.20
2019-05-23T05:17:44.400Z,92.90
2019-05-23T05:20:13.220Z,92.50
2019-05-23T05:22:40.777Z,92.50
2019-05-23T05:25:09.370Z,92.40
2019-05-23T05:27:37.404Z,92.30
2019-05-23T05:30:05.497Z,92.00
2019-05-23T05:32:44.049Z,92.10
2019-05-23T05:35:03.119Z,92.30
2019-05-23T05:37:30.829Z,91.60
2019-05-23T05:39:58.972Z,92.30
2019-05-23T05:45:10.844Z,92.50
2019-05-23T05:47:38.714Z,92.40
2019-05-23T05:50:07.988Z,92.20
2019-05-23T05:52:36.792Z,91.30
2019-05-23T05:55:05.330Z,91.30
2019-05-23T05:57:32.862Z,91.40
2019-05-23T06:00:00.433Z,91.20
2019-05-23T06:02:29.355Z,90.90
2019-05-23T06:04:57.044Z,91.70
2019-05-23T06:07:33.837Z,91.40
2019-05-23T06:10:02.900Z,90.70
2019-05-23T06:12:31.048Z,91.10
2019-05-23T06:14:58.837Z,90.80
2019-05-23T06:17:27.660Z,90.60
2019-05-23T06:19:55.283Z,89.90
2019-05-23T06:22:23.890Z,89.70
2019-05-23T06:24:54.423Z,87.90
2019-05-23T06:27:22.001Z,87.10
2019-05-23T06:29:49.893Z,86.40
2019-05-23T06:32:20.180Z,85.10
2019-05-23T06:34:48.881Z,84.90
2019-05-23T06:37:16.783Z,83.80
2019-05-23T06:39:44.501Z,81.50
2019-05-23T06:42:12.202Z,80.60
2019-05-23T06:44:40.268Z,79.50
2019-05-23T06:47:08.222Z,79.50
2019-05-23T06:49:36.111Z,80.40
2019-05-23T06:52:03.742Z,81.00
2019-05-23T06:54:31.298Z,78.40
2019-05-23T06:56:58.808Z,77.30
2019-05-23T06:59:26.431Z,78.00
2019-05-23T07:01:54.059Z,75.60
2019-05-23T07:04:21.670Z,77.60
2019-05-23T07:06:50.201Z,76.30
2019-05-23T07:09:18.973Z,74.50
2019-05-23T07:11:46.531Z,75.60
2019-05-23T07:14:14.586Z,76.70
2019-05-23T07:16:42.254Z,75.40
2019-05-23T07:19:10.419Z,73.70
2019-05-23T07:21:38.590Z,70.90
2019-05-23T07:24:07.153Z,71.30
2019-05-23T07:26:34.816Z,70.50
2019-05-23T07:29:03.340Z,70.90
2019-05-23T07:31:31.434Z,70.20
2019-05-23T07:34:02.279Z,64.60
2019-05-23T07:36:29.903Z,65.90
2019-05-23T07:38:57.712Z,63.30
2019-05-23T07:41:25.197Z,63.70
2019-05-23T07:43:52.878Z,62.90
2019-05-23T07:46:20.534Z,63.80
2019-05-23T07:48:48.070Z,59.30
2019-05-23T07:51:16.231Z,59.50
2019-05-23T07:54:09.413Z,61.80
2019-05-23T07:56:37.288Z,58.60
2019-05-23T07:59:04.906Z,56.90
2019-05-23T08:01:35.485Z,53.40
2019-05-23T08:04:19.773Z,51.40
2019-05-23T08:06:33.371Z,51.00
2019-05-23T08:09:01.225Z,54.60
2019-05-23T08:11:29.209Z,50.00
2019-05-23T08:13:56.972Z,50.50
2019-05-23T08:16:24.566Z,48.50
2019-05-23T08:18:52.767Z,45.50
2019-05-23T08:21:20.459Z,46.50
2019-05-23T08:23:48.098Z,43.80
2019-05-23T08:26:19.069Z,44.30
2019-05-23T08:29:12.429Z,48.40
2019-05-23T08:31:16.333Z,49.00
2019-05-23T08:33:44.507Z,44.00
2019-05-23T08:36:12.722Z,46.50
2019-05-23T08:38:40.663Z,45.60
2019-05-23T08:41:08.327Z,41.80
2019-05-23T08:43:36.490Z,42.60
2019-05-23T08:46:05.044Z,42.40
2019-05-23T08:48:32.695Z,40.50
2019-05-23T08:51:00.642Z,39.10
2019-05-23T08:53:28.374Z,42.90
2019-05-23T08:55:56.841Z,40.90
2019-05-23T08:58:24.613Z,40.60
2019-05-23T09:00:54.419Z,40.10
2019-05-23T09:03:21.908Z,42.30
2019-05-23T09:05:49.621Z,41.40
2019-05-23T09:08:17.532Z,39.10
2019-05-23T09:10:47.504Z,38.50
2019-05-23T09:13:15.658Z,39.80
2019-05-23T09:15:43.427Z,41.10
2019-05-23T09:18:11.902Z,38.90
2019-05-23T09:20:39.780Z,37.90
2019-05-23T09:23:09.369Z,38.80
2019-05-23T09:25:36.831Z,39.20
2019-05-23T09:28:05.064Z,39.80
2019-05-23T09:30:33.547Z,35.40
2019-05-23T09:33:01.422Z,35.70
2019-05-23T09:35:29.212Z,34.40
2019-05-23T09:37:57.168Z,32.80
2019-05-23T09:40:24.943Z,34.20
2019-05-23T09:42:52.444Z,30.90
2019-05-23T09:45:20.295Z,33.40
2019-05-23T09:47:50.909Z,33.60
2019-05-23T09:50:19.656Z,34.70
2019-05-23T09:52:47.371Z,32.80
2019-05-23T09:55:15.578Z,32.70
2019-05-23T09:57:43.438Z,31.00
2019-05-23T10:00:14.476Z,32.10
2019-05-23T10:02:42.247Z,29.00
2019-05-23T10:05:10.976Z,31.30
2019-05-23T10:07:39.202Z,33.00
2019-05-23T10:10:08.791Z,30.20
2019-05-23T10:12:36.682Z,31.50
2019-05-23T10:15:05.164Z,31.30
2019-05-23T10:17:32.874Z,30.60
2019-05-23T10:20:00.500Z,30.90
2019-05-23T10:22:28.046Z,31.60
2019-05-23T10:24:55.953Z,30.40
2019-05-23T10:27:24.055Z,31.20
2019-05-23T10:29:51.620Z,28.00
2019-05-23T10:32:19.617Z,28.20
2019-05-23T10:34:47.343Z,27.70
2019-05-23T10:37:15.790Z,29.80
2019-05-23T10:39:49.244Z,28.60
2019-05-23T10:42:17.232Z,26.40
2019-05-23T10:44:45.211Z,29.00
2019-05-23T10:47:13.620Z,26.00
2019-05-23T10:49:41.158Z,27.90
2019-05-23T10:52:11.332Z,26.80
2019-05-23T10:54:38.940Z,26.00
2019-05-23T10:57:07.613Z,28.00
2019-05-23T10:59:35.231Z,27.70
2019-05-23T11:02:02.886Z,27.70
2019-05-23T11:04:30.674Z,26.10
2019-05-23T11:06:58.253Z,27.40
2019-05-23T11:09:37.167Z,26.90
2019-05-23T11:11:57.049Z,26.70
2019-05-23T11:14:25.346Z,24.80
2019-05-23T11:16:52.914Z,27.10
2019-05-23T11:19:20.729Z,25.70
2019-05-23T11:21:48.301Z,26.30
2019-05-23T11:24:16.583Z,28.40
2019-05-23T11:26:45.025Z,27.00
2019-05-23T11:29:12.905Z,25.10
2019-05-23T11:31:41.211Z,26.30
2019-05-23T11:34:08.651Z,25.20
2019-05-23T11:36:37.142Z,25.60
2019-05-23T11:39:07.331Z,27.00
2019-05-23T11:41:35.215Z,26.50
2019-05-23T11:44:03.720Z,25.90
2019-05-23T11:46:34.957Z,25.10
2019-05-23T11:49:04.606Z,24.30
2019-05-23T11:51:32.675Z,26.20
2019-05-23T11:54:07.746Z,25.30
2019-05-23T11:56:29.821Z,26.00
2019-05-23T11:59:01.283Z,25.50
2019-05-23T12:01:51.896Z,25.50
2019-05-23T12:04:21.294Z,25.10
2019-05-23T12:06:59.462Z,25.10
2019-05-23T12:09:27.084Z,23.90
2019-05-23T12:11:54.909Z,24.80
2019-05-23T12:14:22.667Z,23.10
2019-05-23T12:16:50.965Z,24.50
2019-05-23T12:19:18.725Z,26.40
2019-05-23T12:21:46.327Z,26.70
2019-05-23T12:24:14.995Z,26.40
2019-05-23T12:26:42.849Z,24.80
2019-05-23T12:29:10.357Z,25.00
2019-05-23T12:31:37.813Z,25.60
2019-05-23T12:34:05.480Z,26.70
2019-05-23T12:36:33.238Z,24.80
2019-05-23T12:39:00.808Z,25.80
2019-05-23T12:41:28.365Z,24.80
2019-05-23T12:43:55.845Z,25.90
2019-05-23T12:46:24.428Z,26.80
2019-05-23T12:49:03.998Z,25.50
2019-05-23T12:51:33.553Z,25.20
2019-05-23T12:54:01.034Z,24.80
2019-05-23T12:56:29.072Z,26.30
2019-05-23T12:58:56.713Z,26.60
2019-05-23T13:01:24.571Z,27.20
2019-05-23T13:03:52.184Z,27.00
2019-05-23T13:06:19.769Z,27.00
2019-05-23T13:08:47.356Z,25.00
2019-05-23T13:11:15.049Z,24.80
2019-05-23T13:13:42.734Z,27.90
2019-05-23T13:16:10.275Z,27.90
2019-05-23T13:18:37.917Z,25.60
2019-05-23T13:21:05.464Z,26.70
2019-05-23T13:23:33.594Z,26.20
2019-05-23T13:26:01.090Z,25.60
2019-05-23T13:28:28.766Z,24.90
2019-05-23T13:30:56.327Z,25.70
2019-05-23T13:33:24.568Z,25.90
2019-05-23T13:35:52.435Z,26.70
2019-05-23T13:38:20.163Z,25.80
2019-05-23T13:40:47.860Z,27.10
2019-05-23T13:43:15.383Z,25.60
2019-05-23T13:45:43.276Z,27.40
2019-05-23T13:48:10.756Z,28.70
2019-05-23T13:50:38.819Z,26.70
2019-05-23T13:53:07.564Z,24.20
2019-05-23T13:55:36.955Z,24.60
2019-05-23T13:58:04.514Z,24.50
2019-05-23T14:00:33.533Z,26.00
2019-05-23T14:03:01.760Z,25.40
2019-05-23T14:05:29.525Z,25.20
2019-05-23T14:08:11.589Z,25.50
2019-05-23T14:10:27.857Z,29.50
2019-05-23T14:12:55.840Z,28.30
2019-05-23T14:15:27.851Z,26.80
2019-05-23T14:17:55.964Z,26.10
2019-05-23T14:20:23.576Z,27.50
2019-05-23T14:22:56.335Z,28.10
2019-05-23T14:25:24.080Z,26.30
2019-05-23T14:27:57.442Z,27.20
2019-05-23T14:30:59.567Z,26.30
2019-05-23T14:33:46.911Z,26.90
2019-05-23T14:36:20.595Z,29.40
2019-05-23T14:38:51.869Z,28.40
2019-05-23T14:41:20.618Z,28.50
2019-05-23T14:43:52.082Z,28.30
2019-05-23T14:46:20.969Z,27.50
2019-05-23T14:49:17.091Z,27.20
2019-05-23T14:52:16.653Z,26.90
2019-05-23T14:54:47.351Z,27.20
2019-05-23T14:57:15.220Z,27.70
2019-05-23T14:59:42.866Z,27.20
2019-05-23T15:02:15.426Z,27.60
2019-05-23T15:04:42.965Z,27.60
2019-05-23T15:07:10.574Z,28.60
2019-05-23T15:09:38.100Z,29.20
2019-05-23T15:12:06.780Z,29.20
2019-05-23T15:14:34.329Z,28.20
2019-05-23T15:17:02.125Z,28.10
2019-05-23T15:19:41.894Z,27.90
2019-05-23T15:21:59.306Z,27.40
2019-05-23T15:24:27.394Z,29.30
2019-05-23T15:26:55.054Z,28.60
2019-05-23T15:29:22.610Z,28.50
2019-05-23T15:32:01.910Z,28.60
2019-05-23T15:34:19.749Z,29.00
2019-05-23T15:36:47.322Z,30.10
2019-05-23T15:39:16.068Z,31.60
2019-05-23T15:41:43.763Z,29.30
2019-05-23T15:44:24.176Z,29.50
2019-05-23T15:46:40.855Z,28.90
2019-05-23T15:49:10.099Z,28.30
2019-05-23T15:51:43.943Z,28.80
2019-05-23T15:54:21.060Z,28.40
2019-05-23T15:57:03.043Z,28.70
2019-05-23T15:59:59.552Z,28.00
2019-05-23T16:02:32.157Z,28.70
2019-05-23T16:05:00.742Z,29.60
2019-05-23T16:07:28.607Z,31.00
2019-05-23T16:09:56.286Z,31.00
2019-05-23T16:12:24.098Z,29.90
2019-05-23T16:14:51.700Z,30.90
2019-05-23T16:17:19.346Z,28.30
2019-05-23T16:19:47.372Z,28.30
2019-05-23T16:22:14.975Z,28.70
2019-05-23T16:24:42.787Z,28.60
2019-05-23T16:27:11.221Z,27.60
2019-05-23T16:29:40.004Z,28.60
2019-05-23T16:32:07.885Z,27.90
2019-05-23T16:34:36.028Z,28.00
2019-05-23T16:37:03.827Z,29.10
2019-05-23T16:39:45.845Z,30.20
2019-05-23T16:42:01.198Z,30.40
2019-05-23T16:44:28.637Z,29.70
2019-05-23T16:46:56.375Z,30.10
2019-05-23T16:49:24.955Z,29.40
2019-05-23T16:51:53.780Z,29.10
2019-05-23T16:54:25.337Z,30.20
2019-05-23T16:57:11.182Z,29.90
2019-05-23T16:59:46.663Z,30.70
2019-05-23T17:02:39.598Z,31.50
2019-05-23T17:05:18.682Z,31.20
2019-05-23T17:07:57.269Z,33.10
2019-05-23T17:10:44.307Z,32.50
2019-05-23T17:13:22.113Z,31.30
2019-05-23T17:16:12.230Z,33.90
2019-05-23T17:19:00.685Z,35.40
2019-05-23T17:21:54.400Z,35.00
2019-05-23T17:24:34.308Z,36.20
2019-05-23T17:27:24.826Z,36.60
2019-05-23T17:29:56.719Z,35.90
2019-05-23T17:32:29.251Z,37.40
2019-05-23T17:34:57.231Z,38.00
2019-05-23T17:37:25.758Z,39.50
2019-05-23T17:39:53.885Z,39.80
2019-05-23T17:42:23.167Z,40.50
2019-05-23T17:44:50.830Z,39.50
2019-05-23T17:47:18.899Z,39.10
2019-05-23T17:49:46.691Z,40.50
2019-05-23T17:52:14.567Z,41.50
2019-05-23T17:54:42.282Z,42.10
2019-05-23T17:57:10.056Z,43.20
2019-05-23T17:59:37.807Z,42.60
2019-05-23T18:02:06.824Z,42.40
2019-05-23T18:04:34.502Z,42.60
2019-05-23T18:07:03.194Z,44.40
2019-05-23T18:09:34.793Z,44.60
2019-05-23T18:12:03.298Z,44.00
2019-05-23T18:14:31.161Z,42.40
2019-05-23T18:16:58.845Z,43.00
2019-05-23T18:19:26.546Z,43.80
2019-05-23T18:21:54.449Z,45.30
2019-05-23T18:24:23.187Z,45.60
2019-05-23T18:26:51.328Z,45.20
2019-05-23T18:29:19.356Z,45.90
2019-05-23T18:31:48.265Z,48.40
2019-05-23T18:34:15.863Z,47.60
2019-05-23T18:36:43.648Z,45.80
2019-05-23T18:39:15.853Z,45.90
2019-05-23T18:41:45.205Z,47.00
2019-05-23T18:44:13.631Z,47.60
2019-05-23T18:46:44.399Z,48.70
2019-05-23T18:49:12.617Z,47.90
2019-05-23T18:51:42.867Z,47.90
2019-05-23T18:54:11.916Z,47.90
2019-05-23T18:56:40.175Z,47.30
2019-05-23T18:59:09.447Z,47.30
2019-05-23T19:01:37.479Z,47.30
2019-05-23T19:04:05.468Z,48.40
2019-05-23T19:06:33.439Z,48.80
2019-05-23T19:09:01.062Z,49.30
2019-05-23T19:11:30.187Z,48.70
2019-05-23T19:13:57.859Z,49.30
2019-05-23T19:16:26.081Z,50.80
2019-05-23T19:18:53.643Z,50.30
2019-05-23T19:21:21.956Z,50.80
2019-05-23T19:23:49.768Z,51.10
2019-05-23T19:26:18.103Z,51.70
2019-05-23T19:28:46.239Z,52.30
2019-05-23T19:31:16.366Z,53.20
2019-05-23T19:33:46.112Z,54.30
2019-05-23T19:36:15.480Z,54.20
2019-05-23T19:38:43.167Z,56.10
2019-05-23T19:41:11.750Z,55.20
2019-05-23T19:43:39.435Z,56.30
2019-05-23T19:46:07.412Z,57.00
2019-05-23T19:48:36.108Z,57.50
2019-05-23T19:51:05.452Z,58.60
2019-05-23T19:53:33.654Z,59.90
2019-05-23T19:56:01.989Z,59.80
2019-05-23T19:58:30.083Z,61.00
2019-05-23T20:00:57.674Z,60.90
2019-05-23T20:03:25.388Z,61.40
2019-05-23T20:05:53.303Z,62.70
2019-05-23T20:08:20.996Z,64.60
2019-05-23T20:10:48.807Z,64.80
2019-05-23T20:13:18.677Z,65.50
2019-05-23T20:15:46.537Z,66.80
2019-05-23T20:18:14.633Z,67.40
2019-05-23T20:20:42.181Z,68.50
2019-05-23T20:23:15.494Z,68.90
2019-05-23T20:25:41.416Z,70.40
2019-05-23T20:28:09.041Z,70.20
2019-05-23T20:30:55.143Z,70.90
2019-05-23T20:33:23.332Z,71.10
2019-05-23T20:35:51.234Z,72.00
2019-05-23T20:38:19.381Z,73.20
2019-05-23T20:40:47.613Z,73.90
2019-05-23T20:43:15.481Z,74.30
2019-05-23T20:45:43.053Z,74.80
2019-05-23T20:48:11.667Z,75.20
2019-05-23T20:50:39.441Z,75.00
2019-05-23T20:53:07.120Z,75.40
2019-05-23T20:55:34.813Z,75.80
2019-05-23T20:58:02.757Z,76.10
2019-05-23T21:00:50.179Z,76.90
2019-05-23T21:03:19.523Z,77.60
2019-05-23T21:05:47.278Z,78.40
2019-05-23T21:08:14.884Z,79.10
2019-05-23T21:10:47.558Z,79.50
2019-05-23T21:13:15.840Z,80.20
2019-05-23T21:15:43.643Z,80.40
2019-05-23T21:18:11.374Z,81.40
2019-05-23T21:20:38.928Z,82.10
2019-05-23T21:23:06.410Z,82.70
2019-05-23T21:25:35.380Z,82.50
2019-05-23T21:28:03.167Z,82.70
2019-05-23T21:30:31.190Z,82.70
2019-05-23T21:32:58.916Z,82.80
2019-05-23T21:35:26.499Z,83.00
2019-05-23T21:37:53.999Z,83.20
2019-05-23T21:40:40.013Z,83.20
2019-05-23T21:43:08.563Z,84.00
2019-05-23T21:45:36.314Z,83.60
2019-05-23T21:48:04.420Z,84.00
2019-05-23T21:50:32.271Z,84.00
2019-05-23T21:52:59.762Z,83.80
2019-05-23T21:55:36.074Z,84.00
2019-05-23T21:58:04.039Z,84.00
2019-05-23T22:01:19.218Z,84.30
2019-05-23T22:03:49.095Z,84.70
2019-05-23T22:06:17.942Z,84.10
2019-05-23T22:08:45.675Z,84.30
2019-05-23T22:11:13.805Z,84.50
2019-05-23T22:13:41.525Z,84.30
2019-05-23T22:16:09.958Z,84.70
2019-05-23T22:18:38.065Z,84.90
2019-05-23T22:21:05.655Z,85.30
2019-05-23T22:23:34.837Z,85.80
2019-05-23T22:26:03.990Z,86.20
2019-05-23T22:28:31.766Z,86.20
2019-05-23T22:30:59.275Z,86.40
2019-05-23T22:33:29.349Z,86.80
2019-05-23T22:35:58.591Z,86.90
2019-05-23T22:38:26.261Z,86.90
2019-05-23T22:40:53.808Z,86.90
2019-05-23T22:43:21.650Z,86.60
2019-05-23T22:45:49.263Z,86.80
2019-05-23T22:48:17.288Z,86.60
2019-05-23T22:50:44.834Z,86.90
2019-05-23T22:53:12.406Z,87.10
2019-05-23T22:55:40.460Z,87.30
2019-05-23T22:58:07.971Z,87.70
2019-05-23T23:00:37.440Z,87.70
2019-05-23T23:03:05.194Z,87.30
2019-05-23T23:05:32.800Z,87.50
2019-05-23T23:08:00.744Z,87.90
2019-05-23T23:10:28.479Z,87.70
2019-05-23T23:12:56.998Z,87.90
2019-05-23T23:15:25.669Z,88.20
2019-05-23T23:17:53.447Z,88.40
2019-05-23T23:20:21.034Z,87.90
2019-05-23T23:22:48.551Z,87.90
2019-05-23T23:25:16.155Z,88.10
2019-05-23T23:27:43.687Z,88.60
2019-05-23T23:30:13.319Z,89.00
2019-05-23T23:32:41.309Z,89.20
2019-05-23T23:35:08.932Z,89.20
2019-05-23T23:37:36.492Z,89.40
2019-05-23T23:40:04.352Z,89.20
2019-05-23T23:42:31.926Z,89.60
2019-05-23T23:45:17.898Z,89.70
2019-05-23T23:48:03.709Z,90.10
2019-05-23T23:50:49.472Z,90.10
2019-05-23T23:53:35.851Z,90.20
2019-05-23T23:56:22.900Z,90.30
2019-05-23T23:58:50.253Z,90.40
